sensor_id;sensor_type;location;lat;lon;timestamp;P1;durP1;ratioP1;P2;durP2;ratioP2
64295;SDS011;51082;38.236;15.432;2023-07-29T00:00:30;0.55;;;0.55;;
64295;SDS011;51082;38.236;15.432;2023-07-29T00:01:33;1.33;;;0.98;;
64295;SDS011;51082;38.236;15.432;2023-07-29T00:02:35;0.85;;;0.77;;
64295;SDS011;51082;38.236;15.432;2023-07-29T00:03:38;3.72;;;0.77;;
64295;SDS011;51082;38.236;15.432;2023-07-29T00:04:40;1.88;;;0.98;;
64295;SDS011;51082;38.236;15.432;2023-07-29T00:05:44;0.77;;;0.60;;
64295;SDS011;51082;38.236;15.432;2023-07-29T00:06:45;1.15;;;0.77;;
64295;SDS011;51082;38.236;15.432;2023-07-29T00:07:48;0.35;;;0.35;;
64295;SDS011;51082;38.236;15.432;2023-07-29T00:08:50;1.75;;;0.60;;
64295;SDS011;51082;38.236;15.432;2023-07-29T00:09:52;0.82;;;0.70;;
64295;SDS011;51082;38.236;15.432;2023-07-29T00:10:54;4.43;;;0.95;;
64295;SDS011;51082;38.236;15.432;2023-07-29T00:11:57;1.13;;;0.55;;
64295;SDS011;51082;38.236;15.432;2023-07-29T00:12:58;5.78;;;1.13;;
64295;SDS011;51082;38.236;15.432;2023-07-29T00:14:00;3.60;;;1.08;;
64295;SDS011;51082;38.236;15.432;2023-07-29T00:15:03;0.50;;;0.47;;
64295;SDS011;51082;38.236;15.432;2023-07-29T00:16:05;3.85;;;1.23;;
64295;SDS011;51082;38.236;15.432;2023-07-29T00:17:08;0.90;;;0.68;;
64295;SDS011;51082;38.236;15.432;2023-07-29T00:18:10;1.90;;;0.70;;
64295;SDS011;51082;38.236;15.432;2023-07-29T00:19:12;3.88;;;1.10;;
64295;SDS011;51082;38.236;15.432;2023-07-29T00:20:14;2.17;;;1.15;;
64295;SDS011;51082;38.236;15.432;2023-07-29T00:21:18;1.02;;;0.63;;
64295;SDS011;51082;38.236;15.432;2023-07-29T00:22:20;1.08;;;0.88;;
64295;SDS011;51082;38.236;15.432;2023-07-29T00:23:23;1.60;;;1.00;;
64295;SDS011;51082;38.236;15.432;2023-07-29T00:24:24;3.47;;;1.05;;
64295;SDS011;51082;38.236;15.432;2023-07-29T00:25:27;1.90;;;0.80;;
64295;SDS011;51082;38.236;15.432;2023-07-29T00:26:29;1.45;;;0.73;;
64295;SDS011;51082;38.236;15.432;2023-07-29T00:27:31;0.85;;;0.68;;
64295;SDS011;51082;38.236;15.432;2023-07-29T00:28:33;0.47;;;0.47;;
64295;SDS011;51082;38.236;15.432;2023-07-29T00:29:36;1.17;;;0.90;;
64295;SDS011;51082;38.236;15.432;2023-07-29T00:30:37;1.00;;;0.70;;
64295;SDS011;51082;38.236;15.432;2023-07-29T00:31:40;4.07;;;1.02;;
64295;SDS011;51082;38.236;15.432;2023-07-29T00:32:41;4.22;;;0.85;;
64295;SDS011;51082;38.236;15.432;2023-07-29T00:33:44;0.73;;;0.55;;
64295;SDS011;51082;38.236;15.432;2023-07-29T00:34:46;1.08;;;0.95;;
64295;SDS011;51082;38.236;15.432;2023-07-29T00:35:48;0.70;;;0.60;;
64295;SDS011;51082;38.236;15.432;2023-07-29T00:36:51;1.33;;;0.50;;
64295;SDS011;51082;38.236;15.432;2023-07-29T00:37:54;1.00;;;0.60;;
64295;SDS011;51082;38.236;15.432;2023-07-29T00:38:56;0.82;;;0.70;;
64295;SDS011;51082;38.236;15.432;2023-07-29T00:39:59;2.25;;;1.23;;
64295;SDS011;51082;38.236;15.432;2023-07-29T00:41:00;2.15;;;1.30;;
64295;SDS011;51082;38.236;15.432;2023-07-29T00:42:05;1.60;;;0.80;;
64295;SDS011;51082;38.236;15.432;2023-07-29T00:43:07;0.55;;;0.50;;
64295;SDS011;51082;38.236;15.432;2023-07-29T00:44:09;3.53;;;1.02;;
64295;SDS011;51082;38.236;15.432;2023-07-29T00:45:11;0.68;;;0.65;;
64295;SDS011;51082;38.236;15.432;2023-07-29T00:46:14;0.82;;;0.68;;
64295;SDS011;51082;38.236;15.432;2023-07-29T00:47:17;0.40;;;0.40;;
64295;SDS011;51082;38.236;15.432;2023-07-29T00:48:22;0.77;;;0.57;;
64295;SDS011;51082;38.236;15.432;2023-07-29T00:49:24;2.58;;;0.82;;
64295;SDS011;51082;38.236;15.432;2023-07-29T00:50:27;2.15;;;0.75;;
64295;SDS011;51082;38.236;15.432;2023-07-29T00:51:29;1.77;;;0.80;;
64295;SDS011;51082;38.236;15.432;2023-07-29T00:52:33;0.47;;;0.47;;
64295;SDS011;51082;38.236;15.432;2023-07-29T00:53:35;1.20;;;0.77;;
64295;SDS011;51082;38.236;15.432;2023-07-29T00:54:38;3.15;;;1.00;;
64295;SDS011;51082;38.236;15.432;2023-07-29T00:55:40;2.40;;;0.70;;
64295;SDS011;51082;38.236;15.432;2023-07-29T00:56:43;0.98;;;0.70;;
64295;SDS011;51082;38.236;15.432;2023-07-29T00:57:45;1.67;;;1.52;;
64295;SDS011;51082;38.236;15.432;2023-07-29T00:58:48;1.75;;;0.80;;
64295;SDS011;51082;38.236;15.432;2023-07-29T00:59:52;0.57;;;0.57;;
64295;SDS011;51082;38.236;15.432;2023-07-29T01:00:55;2.47;;;0.95;;
64295;SDS011;51082;38.236;15.432;2023-07-29T01:01:57;1.05;;;0.77;;
64295;SDS011;51082;38.236;15.432;2023-07-29T01:03:00;1.23;;;1.00;;
64295;SDS011;51082;38.236;15.432;2023-07-29T01:04:02;4.05;;;1.65;;
64295;SDS011;51082;38.236;15.432;2023-07-29T01:05:05;0.60;;;0.50;;
64295;SDS011;51082;38.236;15.432;2023-07-29T01:06:09;1.88;;;1.15;;
64295;SDS011;51082;38.236;15.432;2023-07-29T01:07:18;0.37;;;0.37;;
64295;SDS011;51082;38.236;15.432;2023-07-29T01:08:27;1.23;;;0.47;;
64295;SDS011;51082;38.236;15.432;2023-07-29T01:09:36;1.77;;;1.00;;
64295;SDS011;51082;38.236;15.432;2023-07-29T01:10:46;1.23;;;0.70;;
64295;SDS011;51082;38.236;15.432;2023-07-29T01:12:08;5.70;;;0.90;;
64295;SDS011;51082;38.236;15.432;2023-07-29T01:13:15;4.28;;;1.15;;
64295;SDS011;51082;38.236;15.432;2023-07-29T01:14:23;1.00;;;0.75;;
64295;SDS011;51082;38.236;15.432;2023-07-29T01:15:31;0.85;;;0.55;;
64295;SDS011;51082;38.236;15.432;2023-07-29T01:16:52;0.30;;;0.30;;
64295;SDS011;51082;38.236;15.432;2023-07-29T01:17:59;2.20;;;0.88;;
64295;SDS011;51082;38.236;15.432;2023-07-29T01:19:05;1.05;;;1.02;;
64295;SDS011;51082;38.236;15.432;2023-07-29T01:20:08;4.47;;;0.93;;
64295;SDS011;51082;38.236;15.432;2023-07-29T01:21:12;0.70;;;0.63;;
64295;SDS011;51082;38.236;15.432;2023-07-29T01:22:16;3.40;;;0.60;;
64295;SDS011;51082;38.236;15.432;2023-07-29T01:23:24;1.73;;;0.60;;
64295;SDS011;51082;38.236;15.432;2023-07-29T01:24:27;0.63;;;0.60;;
64295;SDS011;51082;38.236;15.432;2023-07-29T01:25:29;1.30;;;0.68;;
64295;SDS011;51082;38.236;15.432;2023-07-29T01:26:30;1.10;;;0.95;;
64295;SDS011;51082;38.236;15.432;2023-07-29T01:27:33;0.73;;;0.73;;
64295;SDS011;51082;38.236;15.432;2023-07-29T01:28:35;2.35;;;1.10;;
64295;SDS011;51082;38.236;15.432;2023-07-29T01:29:36;0.93;;;0.82;;
64295;SDS011;51082;38.236;15.432;2023-07-29T01:30:39;1.60;;;0.85;;
64295;SDS011;51082;38.236;15.432;2023-07-29T01:31:44;3.13;;;1.77;;
64295;SDS011;51082;38.236;15.432;2023-07-29T01:32:53;4.60;;;1.20;;
64295;SDS011;51082;38.236;15.432;2023-07-29T01:33:57;2.60;;;0.77;;
64295;SDS011;51082;38.236;15.432;2023-07-29T01:35:03;4.85;;;1.08;;
64295;SDS011;51082;38.236;15.432;2023-07-29T01:36:11;1.50;;;0.70;;
64295;SDS011;51082;38.236;15.432;2023-07-29T01:37:18;0.77;;;0.45;;
64295;SDS011;51082;38.236;15.432;2023-07-29T01:38:27;2.63;;;0.95;;
64295;SDS011;51082;38.236;15.432;2023-07-29T01:39:34;2.47;;;0.85;;
64295;SDS011;51082;38.236;15.432;2023-07-29T01:40:37;4.05;;;0.98;;
64295;SDS011;51082;38.236;15.432;2023-07-29T01:41:41;0.80;;;0.40;;
64295;SDS011;51082;38.236;15.432;2023-07-29T01:42:44;1.85;;;0.70;;
64295;SDS011;51082;38.236;15.432;2023-07-29T01:43:47;0.63;;;0.60;;
64295;SDS011;51082;38.236;15.432;2023-07-29T01:44:49;3.67;;;1.00;;
64295;SDS011;51082;38.236;15.432;2023-07-29T01:45:52;0.95;;;0.63;;
64295;SDS011;51082;38.236;15.432;2023-07-29T01:46:55;1.33;;;0.70;;
64295;SDS011;51082;38.236;15.432;2023-07-29T01:47:59;1.05;;;0.75;;
64295;SDS011;51082;38.236;15.432;2023-07-29T01:49:00;1.60;;;0.88;;
64295;SDS011;51082;38.236;15.432;2023-07-29T01:50:03;1.38;;;0.70;;
64295;SDS011;51082;38.236;15.432;2023-07-29T01:51:06;1.23;;;0.73;;
64295;SDS011;51082;38.236;15.432;2023-07-29T01:52:08;1.23;;;0.65;;
64295;SDS011;51082;38.236;15.432;2023-07-29T01:53:11;1.23;;;0.80;;
64295;SDS011;51082;38.236;15.432;2023-07-29T01:54:14;1.65;;;0.70;;
64295;SDS011;51082;38.236;15.432;2023-07-29T01:55:16;0.95;;;0.70;;
64295;SDS011;51082;38.236;15.432;2023-07-29T01:56:18;0.70;;;0.68;;
64295;SDS011;51082;38.236;15.432;2023-07-29T01:57:20;4.05;;;0.90;;
64295;SDS011;51082;38.236;15.432;2023-07-29T01:58:22;1.80;;;0.68;;
64295;SDS011;51082;38.236;15.432;2023-07-29T01:59:25;1.65;;;0.98;;
64295;SDS011;51082;38.236;15.432;2023-07-29T02:00:26;0.98;;;0.70;;
64295;SDS011;51082;38.236;15.432;2023-07-29T02:01:29;1.45;;;0.60;;
64295;SDS011;51082;38.236;15.432;2023-07-29T02:02:32;1.75;;;0.90;;
64295;SDS011;51082;38.236;15.432;2023-07-29T02:03:35;1.58;;;1.10;;
64295;SDS011;51082;38.236;15.432;2023-07-29T02:04:36;0.70;;;0.70;;
64295;SDS011;51082;38.236;15.432;2023-07-29T02:05:39;1.58;;;0.80;;
64295;SDS011;51082;38.236;15.432;2023-07-29T02:06:42;4.72;;;0.70;;
64295;SDS011;51082;38.236;15.432;2023-07-29T02:07:45;2.03;;;0.68;;
64295;SDS011;51082;38.236;15.432;2023-07-29T02:08:46;0.93;;;0.63;;
64295;SDS011;51082;38.236;15.432;2023-07-29T02:09:50;1.20;;;0.98;;
64295;SDS011;51082;38.236;15.432;2023-07-29T02:10:52;0.98;;;0.60;;
64295;SDS011;51082;38.236;15.432;2023-07-29T02:11:55;1.20;;;0.77;;
64295;SDS011;51082;38.236;15.432;2023-07-29T02:12:56;2.10;;;0.75;;
64295;SDS011;51082;38.236;15.432;2023-07-29T02:13:59;1.75;;;0.93;;
64295;SDS011;51082;38.236;15.432;2023-07-29T02:15:00;1.00;;;0.90;;
64295;SDS011;51082;38.236;15.432;2023-07-29T02:16:03;1.38;;;1.15;;
64295;SDS011;51082;38.236;15.432;2023-07-29T02:17:05;3.10;;;1.38;;
64295;SDS011;51082;38.236;15.432;2023-07-29T02:18:08;0.80;;;0.80;;
64295;SDS011;51082;38.236;15.432;2023-07-29T02:19:09;1.20;;;0.80;;
64295;SDS011;51082;38.236;15.432;2023-07-29T02:20:12;1.00;;;0.52;;
64295;SDS011;51082;38.236;15.432;2023-07-29T02:21:14;0.98;;;0.60;;
64295;SDS011;51082;38.236;15.432;2023-07-29T02:22:16;0.57;;;0.57;;
64295;SDS011;51082;38.236;15.432;2023-07-29T02:23:19;0.88;;;0.63;;
64295;SDS011;51082;38.236;15.432;2023-07-29T02:24:21;4.30;;;1.23;;
64295;SDS011;51082;38.236;15.432;2023-07-29T02:25:24;0.60;;;0.60;;
64295;SDS011;51082;38.236;15.432;2023-07-29T02:26:27;0.55;;;0.55;;
64295;SDS011;51082;38.236;15.432;2023-07-29T02:27:29;1.48;;;0.82;;
64295;SDS011;51082;38.236;15.432;2023-07-29T02:28:31;1.70;;;0.80;;
64295;SDS011;51082;38.236;15.432;2023-07-29T02:29:33;0.82;;;0.68;;
64295;SDS011;51082;38.236;15.432;2023-07-29T02:30:36;1.85;;;0.75;;
64295;SDS011;51082;38.236;15.432;2023-07-29T02:31:37;1.42;;;0.77;;
64295;SDS011;51082;38.236;15.432;2023-07-29T02:32:40;4.05;;;1.40;;
64295;SDS011;51082;38.236;15.432;2023-07-29T02:33:42;0.80;;;0.63;;
64295;SDS011;51082;38.236;15.432;2023-07-29T02:34:45;0.90;;;0.90;;
64295;SDS011;51082;38.236;15.432;2023-07-29T02:35:47;0.88;;;0.85;;
64295;SDS011;51082;38.236;15.432;2023-07-29T02:36:49;0.77;;;0.57;;
64295;SDS011;51082;38.236;15.432;2023-07-29T02:37:51;1.98;;;1.15;;
64295;SDS011;51082;38.236;15.432;2023-07-29T02:38:52;0.65;;;0.63;;
64295;SDS011;51082;38.236;15.432;2023-07-29T02:39:55;1.17;;;0.98;;
64295;SDS011;51082;38.236;15.432;2023-07-29T02:40:58;0.50;;;0.50;;
64295;SDS011;51082;38.236;15.432;2023-07-29T02:42:01;6.80;;;0.68;;
64295;SDS011;51082;38.236;15.432;2023-07-29T02:43:03;3.55;;;1.15;;
64295;SDS011;51082;38.236;15.432;2023-07-29T02:44:05;0.73;;;0.60;;
64295;SDS011;51082;38.236;15.432;2023-07-29T02:45:07;1.20;;;0.68;;
64295;SDS011;51082;38.236;15.432;2023-07-29T02:46:11;2.00;;;0.82;;
64295;SDS011;51082;38.236;15.432;2023-07-29T02:47:13;3.72;;;1.42;;
64295;SDS011;51082;38.236;15.432;2023-07-29T02:48:16;1.33;;;0.95;;
64295;SDS011;51082;38.236;15.432;2023-07-29T02:49:18;1.45;;;0.85;;
64295;SDS011;51082;38.236;15.432;2023-07-29T02:50:20;2.10;;;0.98;;
64295;SDS011;51082;38.236;15.432;2023-07-29T02:51:22;0.80;;;0.70;;
64295;SDS011;51082;38.236;15.432;2023-07-29T02:52:24;7.55;;;0.77;;
64295;SDS011;51082;38.236;15.432;2023-07-29T02:53:26;6.25;;;1.00;;
64295;SDS011;51082;38.236;15.432;2023-07-29T02:54:28;2.13;;;0.95;;
64295;SDS011;51082;38.236;15.432;2023-07-29T02:55:30;3.67;;;0.75;;
64295;SDS011;51082;38.236;15.432;2023-07-29T02:56:33;1.08;;;0.73;;
64295;SDS011;51082;38.236;15.432;2023-07-29T02:57:37;0.80;;;0.80;;
64295;SDS011;51082;38.236;15.432;2023-07-29T02:58:38;0.77;;;0.60;;
64295;SDS011;51082;38.236;15.432;2023-07-29T02:59:41;1.17;;;0.80;;
64295;SDS011;51082;38.236;15.432;2023-07-29T03:00:43;0.70;;;0.60;;
64295;SDS011;51082;38.236;15.432;2023-07-29T03:01:45;5.53;;;0.80;;
64295;SDS011;51082;38.236;15.432;2023-07-29T03:02:47;1.40;;;1.02;;
64295;SDS011;51082;38.236;15.432;2023-07-29T03:03:51;1.60;;;0.77;;
64295;SDS011;51082;38.236;15.432;2023-07-29T03:04:53;1.23;;;0.75;;
64295;SDS011;51082;38.236;15.432;2023-07-29T03:05:59;1.63;;;0.60;;
64295;SDS011;51082;38.236;15.432;2023-07-29T03:07:02;1.17;;;0.80;;
64295;SDS011;51082;38.236;15.432;2023-07-29T03:08:05;0.55;;;0.32;;
64295;SDS011;51082;38.236;15.432;2023-07-29T03:09:06;1.77;;;1.08;;
64295;SDS011;51082;38.236;15.432;2023-07-29T03:10:09;1.92;;;0.98;;
64295;SDS011;51082;38.236;15.432;2023-07-29T03:11:12;3.20;;;1.25;;
64295;SDS011;51082;38.236;15.432;2023-07-29T03:12:18;1.15;;;0.73;;
64295;SDS011;51082;38.236;15.432;2023-07-29T03:13:19;1.20;;;0.70;;
64295;SDS011;51082;38.236;15.432;2023-07-29T03:14:22;0.70;;;0.70;;
64295;SDS011;51082;38.236;15.432;2023-07-29T03:15:23;3.38;;;0.88;;
64295;SDS011;51082;38.236;15.432;2023-07-29T03:16:26;4.07;;;1.27;;
64295;SDS011;51082;38.236;15.432;2023-07-29T03:17:28;0.70;;;0.70;;
64295;SDS011;51082;38.236;15.432;2023-07-29T03:18:31;1.95;;;0.75;;
64295;SDS011;51082;38.236;15.432;2023-07-29T03:19:32;1.25;;;0.70;;
64295;SDS011;51082;38.236;15.432;2023-07-29T03:20:35;1.08;;;0.90;;
64295;SDS011;51082;38.236;15.432;2023-07-29T03:21:37;2.17;;;0.60;;
64295;SDS011;51082;38.236;15.432;2023-07-29T03:22:39;5.10;;;1.15;;
64295;SDS011;51082;38.236;15.432;2023-07-29T03:23:41;2.80;;;1.23;;
64295;SDS011;51082;38.236;15.432;2023-07-29T03:24:44;2.38;;;0.75;;
64295;SDS011;51082;38.236;15.432;2023-07-29T03:25:47;2.53;;;1.10;;
64295;SDS011;51082;38.236;15.432;2023-07-29T03:26:52;0.90;;;0.90;;
64295;SDS011;51082;38.236;15.432;2023-07-29T03:27:55;1.77;;;0.80;;
64295;SDS011;51082;38.236;15.432;2023-07-29T03:28:57;1.20;;;0.65;;
64295;SDS011;51082;38.236;15.432;2023-07-29T03:29:59;4.28;;;0.93;;
64295;SDS011;51082;38.236;15.432;2023-07-29T03:31:02;0.60;;;0.60;;
64295;SDS011;51082;38.236;15.432;2023-07-29T03:33:07;0.93;;;0.90;;
64295;SDS011;51082;38.236;15.432;2023-07-29T03:34:09;2.08;;;0.70;;
64295;SDS011;51082;38.236;15.432;2023-07-29T03:35:12;0.80;;;0.80;;
64295;SDS011;51082;38.236;15.432;2023-07-29T03:36:15;1.05;;;0.80;;
64295;SDS011;51082;38.236;15.432;2023-07-29T03:37:17;1.83;;;1.00;;
64295;SDS011;51082;38.236;15.432;2023-07-29T03:38:19;1.55;;;0.80;;
64295;SDS011;51082;38.236;15.432;2023-07-29T03:39:21;1.38;;;0.90;;
64295;SDS011;51082;38.236;15.432;2023-07-29T03:40:24;1.10;;;1.00;;
64295;SDS011;51082;38.236;15.432;2023-07-29T03:41:26;0.93;;;0.70;;
64295;SDS011;51082;38.236;15.432;2023-07-29T03:42:28;1.80;;;0.95;;
64295;SDS011;51082;38.236;15.432;2023-07-29T03:43:31;3.50;;;1.10;;
64295;SDS011;51082;38.236;15.432;2023-07-29T03:44:34;2.85;;;1.20;;
64295;SDS011;51082;38.236;15.432;2023-07-29T03:45:36;2.03;;;1.35;;
64295;SDS011;51082;38.236;15.432;2023-07-29T03:46:40;2.38;;;1.40;;
64295;SDS011;51082;38.236;15.432;2023-07-29T03:47:41;6.25;;;1.42;;
64295;SDS011;51082;38.236;15.432;2023-07-29T03:48:44;2.40;;;1.83;;
64295;SDS011;51082;38.236;15.432;2023-07-29T03:49:46;3.08;;;1.90;;
64295;SDS011;51082;38.236;15.432;2023-07-29T03:50:48;3.17;;;2.40;;
64295;SDS011;51082;38.236;15.432;2023-07-29T03:51:50;4.38;;;2.63;;
64295;SDS011;51082;38.236;15.432;2023-07-29T03:52:52;5.40;;;2.55;;
64295;SDS011;51082;38.236;15.432;2023-07-29T03:53:54;6.25;;;2.13;;
64295;SDS011;51082;38.236;15.432;2023-07-29T03:54:57;5.88;;;2.20;;
64295;SDS011;51082;38.236;15.432;2023-07-29T03:55:58;6.63;;;2.45;;
64295;SDS011;51082;38.236;15.432;2023-07-29T03:57:01;6.15;;;2.58;;
64295;SDS011;51082;38.236;15.432;2023-07-29T03:58:03;6.97;;;2.75;;
64295;SDS011;51082;38.236;15.432;2023-07-29T03:59:06;4.20;;;2.55;;
64295;SDS011;51082;38.236;15.432;2023-07-29T04:00:09;5.68;;;2.60;;
64295;SDS011;51082;38.236;15.432;2023-07-29T04:01:11;4.43;;;2.53;;
64295;SDS011;51082;38.236;15.432;2023-07-29T04:02:14;6.45;;;3.00;;
64295;SDS011;51082;38.236;15.432;2023-07-29T04:03:15;2.47;;;2.03;;
64295;SDS011;51082;38.236;15.432;2023-07-29T04:04:18;1.80;;;1.48;;
64295;SDS011;51082;38.236;15.432;2023-07-29T04:05:20;4.57;;;2.03;;
64295;SDS011;51082;38.236;15.432;2023-07-29T04:06:22;3.22;;;1.67;;
64295;SDS011;51082;38.236;15.432;2023-07-29T04:07:24;3.42;;;1.70;;
64295;SDS011;51082;38.236;15.432;2023-07-29T04:08:27;3.28;;;2.15;;
64295;SDS011;51082;38.236;15.432;2023-07-29T04:09:28;2.30;;;1.92;;
64295;SDS011;51082;38.236;15.432;2023-07-29T04:10:31;4.40;;;1.83;;
64295;SDS011;51082;38.236;15.432;2023-07-29T04:11:33;7.22;;;1.80;;
64295;SDS011;51082;38.236;15.432;2023-07-29T04:12:35;6.55;;;1.63;;
64295;SDS011;51082;38.236;15.432;2023-07-29T04:13:37;5.20;;;1.50;;
64295;SDS011;51082;38.236;15.432;2023-07-29T04:14:41;2.55;;;1.20;;
64295;SDS011;51082;38.236;15.432;2023-07-29T04:15:43;2.55;;;1.92;;
64295;SDS011;51082;38.236;15.432;2023-07-29T04:16:45;1.58;;;0.88;;
64295;SDS011;51082;38.236;15.432;2023-07-29T04:17:47;2.08;;;1.65;;
64295;SDS011;51082;38.236;15.432;2023-07-29T04:18:50;3.28;;;1.85;;
64295;SDS011;51082;38.236;15.432;2023-07-29T04:19:51;1.88;;;1.35;;
64295;SDS011;51082;38.236;15.432;2023-07-29T04:20:53;2.13;;;1.50;;
64295;SDS011;51082;38.236;15.432;2023-07-29T04:21:56;3.28;;;1.55;;
64295;SDS011;51082;38.236;15.432;2023-07-29T04:22:57;1.50;;;1.40;;
64295;SDS011;51082;38.236;15.432;2023-07-29T04:24:00;6.80;;;1.40;;
64295;SDS011;51082;38.236;15.432;2023-07-29T04:25:02;2.22;;;1.45;;
64295;SDS011;51082;38.236;15.432;2023-07-29T04:26:05;1.98;;;1.10;;
64295;SDS011;51082;38.236;15.432;2023-07-29T04:27:07;5.10;;;1.85;;
64295;SDS011;51082;38.236;15.432;2023-07-29T04:28:09;2.55;;;1.45;;
64295;SDS011;51082;38.236;15.432;2023-07-29T04:29:11;3.80;;;1.63;;
64295;SDS011;51082;38.236;15.432;2023-07-29T04:30:15;3.33;;;1.55;;
64295;SDS011;51082;38.236;15.432;2023-07-29T04:31:17;2.55;;;1.20;;
64295;SDS011;51082;38.236;15.432;2023-07-29T04:32:19;2.70;;;1.30;;
64295;SDS011;51082;38.236;15.432;2023-07-29T04:33:21;1.58;;;1.48;;
64295;SDS011;51082;38.236;15.432;2023-07-29T04:34:24;3.85;;;1.08;;
64295;SDS011;51082;38.236;15.432;2023-07-29T04:35:26;1.88;;;1.10;;
64295;SDS011;51082;38.236;15.432;2023-07-29T04:36:28;2.90;;;1.75;;
64295;SDS011;51082;38.236;15.432;2023-07-29T04:37:30;5.15;;;1.17;;
64295;SDS011;51082;38.236;15.432;2023-07-29T04:38:33;2.30;;;1.40;;
64295;SDS011;51082;38.236;15.432;2023-07-29T04:39:34;2.85;;;1.20;;
64295;SDS011;51082;38.236;15.432;2023-07-29T04:40:37;1.30;;;1.05;;
64295;SDS011;51082;38.236;15.432;2023-07-29T04:41:39;2.03;;;1.23;;
64295;SDS011;51082;38.236;15.432;2023-07-29T04:42:41;1.80;;;1.40;;
64295;SDS011;51082;38.236;15.432;2023-07-29T04:43:43;1.13;;;1.02;;
64295;SDS011;51082;38.236;15.432;2023-07-29T04:44:46;4.95;;;1.20;;
64295;SDS011;51082;38.236;15.432;2023-07-29T04:45:49;1.17;;;0.88;;
64295;SDS011;51082;38.236;15.432;2023-07-29T04:46:52;2.17;;;1.23;;
64295;SDS011;51082;38.236;15.432;2023-07-29T04:47:54;1.20;;;1.00;;
64295;SDS011;51082;38.236;15.432;2023-07-29T04:48:57;1.05;;;0.82;;
64295;SDS011;51082;38.236;15.432;2023-07-29T04:49:58;1.50;;;1.00;;
64295;SDS011;51082;38.236;15.432;2023-07-29T04:51:01;1.92;;;1.20;;
64295;SDS011;51082;38.236;15.432;2023-07-29T04:52:03;1.65;;;0.90;;
64295;SDS011;51082;38.236;15.432;2023-07-29T04:53:07;1.98;;;1.02;;
64295;SDS011;51082;38.236;15.432;2023-07-29T04:54:08;5.35;;;1.08;;
64295;SDS011;51082;38.236;15.432;2023-07-29T04:55:11;1.83;;;0.90;;
64295;SDS011;51082;38.236;15.432;2023-07-29T04:56:12;3.70;;;1.15;;
64295;SDS011;51082;38.236;15.432;2023-07-29T04:57:15;1.88;;;0.88;;
64295;SDS011;51082;38.236;15.432;2023-07-29T04:58:17;2.70;;;1.15;;
64295;SDS011;51082;38.236;15.432;2023-07-29T04:59:19;5.15;;;1.60;;
64295;SDS011;51082;38.236;15.432;2023-07-29T05:00:21;3.22;;;1.50;;
64295;SDS011;51082;38.236;15.432;2023-07-29T05:01:25;5.65;;;1.52;;
64295;SDS011;51082;38.236;15.432;2023-07-29T05:02:27;1.30;;;0.95;;
64295;SDS011;51082;38.236;15.432;2023-07-29T05:03:30;1.88;;;1.08;;
64295;SDS011;51082;38.236;15.432;2023-07-29T05:04:31;1.27;;;1.10;;
64295;SDS011;51082;38.236;15.432;2023-07-29T05:05:34;2.20;;;1.52;;
64295;SDS011;51082;38.236;15.432;2023-07-29T05:06:35;2.75;;;1.27;;
64295;SDS011;51082;38.236;15.432;2023-07-29T05:07:38;1.73;;;1.35;;
64295;SDS011;51082;38.236;15.432;2023-07-29T05:08:40;1.15;;;0.90;;
64295;SDS011;51082;38.236;15.432;2023-07-29T05:09:42;6.90;;;1.17;;
64295;SDS011;51082;38.236;15.432;2023-07-29T05:10:44;1.10;;;1.00;;
64295;SDS011;51082;38.236;15.432;2023-07-29T05:11:50;0.88;;;0.80;;
64295;SDS011;51082;38.236;15.432;2023-07-29T05:12:51;3.42;;;1.42;;
64295;SDS011;51082;38.236;15.432;2023-07-29T05:13:54;4.95;;;1.08;;
64295;SDS011;51082;38.236;15.432;2023-07-29T05:14:56;2.53;;;1.00;;
64295;SDS011;51082;38.236;15.432;2023-07-29T05:15:59;1.30;;;1.05;;
64295;SDS011;51082;38.236;15.432;2023-07-29T05:17:02;2.35;;;1.40;;
64295;SDS011;51082;38.236;15.432;2023-07-29T05:18:03;1.20;;;1.10;;
64295;SDS011;51082;38.236;15.432;2023-07-29T05:19:06;2.20;;;0.93;;
64295;SDS011;51082;38.236;15.432;2023-07-29T05:20:08;1.63;;;0.85;;
64295;SDS011;51082;38.236;15.432;2023-07-29T05:21:12;1.05;;;0.90;;
64295;SDS011;51082;38.236;15.432;2023-07-29T05:22:15;1.50;;;0.93;;
64295;SDS011;51082;38.236;15.432;2023-07-29T05:23:17;1.52;;;1.15;;
64295;SDS011;51082;38.236;15.432;2023-07-29T05:24:19;2.47;;;0.75;;
64295;SDS011;51082;38.236;15.432;2023-07-29T05:25:22;1.00;;;0.95;;
64295;SDS011;51082;38.236;15.432;2023-07-29T05:26:23;0.93;;;0.80;;
64295;SDS011;51082;38.236;15.432;2023-07-29T05:27:25;2.17;;;0.80;;
64295;SDS011;51082;38.236;15.432;2023-07-29T05:28:28;0.85;;;0.80;;
64295;SDS011;51082;38.236;15.432;2023-07-29T05:29:29;1.20;;;0.80;;
64295;SDS011;51082;38.236;15.432;2023-07-29T05:30:32;3.17;;;0.75;;
64295;SDS011;51082;38.236;15.432;2023-07-29T05:31:37;1.73;;;0.93;;
64295;SDS011;51082;38.236;15.432;2023-07-29T05:32:42;1.77;;;0.63;;
64295;SDS011;51082;38.236;15.432;2023-07-29T05:33:44;1.33;;;0.80;;
64295;SDS011;51082;38.236;15.432;2023-07-29T05:34:46;0.98;;;0.80;;
64295;SDS011;51082;38.236;15.432;2023-07-29T05:35:48;1.98;;;0.98;;
64295;SDS011;51082;38.236;15.432;2023-07-29T05:36:50;0.50;;;0.50;;
64295;SDS011;51082;38.236;15.432;2023-07-29T05:37:52;1.95;;;1.08;;
64295;SDS011;51082;38.236;15.432;2023-07-29T05:38:55;1.40;;;1.05;;
64295;SDS011;51082;38.236;15.432;2023-07-29T05:39:57;3.40;;;0.88;;
64295;SDS011;51082;38.236;15.432;2023-07-29T05:40:59;4.47;;;0.90;;
64295;SDS011;51082;38.236;15.432;2023-07-29T05:42:01;1.77;;;0.88;;
64295;SDS011;51082;38.236;15.432;2023-07-29T05:43:04;0.80;;;0.60;;
64295;SDS011;51082;38.236;15.432;2023-07-29T05:44:06;1.02;;;0.80;;
64295;SDS011;51082;38.236;15.432;2023-07-29T05:45:09;4.00;;;1.40;;
64295;SDS011;51082;38.236;15.432;2023-07-29T05:46:11;1.23;;;0.63;;
64295;SDS011;51082;38.236;15.432;2023-07-29T05:47:14;0.73;;;0.60;;
64295;SDS011;51082;38.236;15.432;2023-07-29T05:48:17;2.47;;;0.70;;
64295;SDS011;51082;38.236;15.432;2023-07-29T05:49:21;0.80;;;0.80;;
64295;SDS011;51082;38.236;15.432;2023-07-29T05:50:23;2.17;;;0.95;;
64295;SDS011;51082;38.236;15.432;2023-07-29T05:51:26;0.73;;;0.60;;
64295;SDS011;51082;38.236;15.432;2023-07-29T05:52:27;2.05;;;1.08;;
64295;SDS011;51082;38.236;15.432;2023-07-29T05:53:30;1.13;;;0.90;;
64295;SDS011;51082;38.236;15.432;2023-07-29T05:54:31;1.90;;;0.73;;
64295;SDS011;51082;38.236;15.432;2023-07-29T05:55:34;1.85;;;1.15;;
64295;SDS011;51082;38.236;15.432;2023-07-29T05:56:36;1.63;;;1.00;;
64295;SDS011;51082;38.236;15.432;2023-07-29T05:57:38;0.95;;;0.65;;
64295;SDS011;51082;38.236;15.432;2023-07-29T05:58:40;1.52;;;0.80;;
64295;SDS011;51082;38.236;15.432;2023-07-29T05:59:43;1.73;;;0.82;;
64295;SDS011;51082;38.236;15.432;2023-07-29T06:00:44;2.38;;;0.73;;
64295;SDS011;51082;38.236;15.432;2023-07-29T06:01:47;2.63;;;0.80;;
64295;SDS011;51082;38.236;15.432;2023-07-29T06:02:49;0.85;;;0.82;;
64295;SDS011;51082;38.236;15.432;2023-07-29T06:03:53;1.52;;;0.63;;
64295;SDS011;51082;38.236;15.432;2023-07-29T06:04:55;1.27;;;0.80;;
64295;SDS011;51082;38.236;15.432;2023-07-29T06:05:58;2.47;;;0.80;;
64295;SDS011;51082;38.236;15.432;2023-07-29T06:06:59;2.03;;;0.88;;
64295;SDS011;51082;38.236;15.432;2023-07-29T06:08:02;3.00;;;0.85;;
64295;SDS011;51082;38.236;15.432;2023-07-29T06:09:04;1.75;;;0.70;;
64295;SDS011;51082;38.236;15.432;2023-07-29T06:10:07;1.23;;;0.70;;
64295;SDS011;51082;38.236;15.432;2023-07-29T06:11:12;4.13;;;0.85;;
64295;SDS011;51082;38.236;15.432;2023-07-29T06:12:15;3.28;;;1.20;;
64295;SDS011;51082;38.236;15.432;2023-07-29T06:13:16;1.23;;;0.73;;